Time;durP1;ratioP1;P1;durP2;ratioP2;P2;SDS_P1;SDS_P2;PMS_P1;PMS_P2;Temp;Humidity;BMP_temperature;BMP_pressure;BME280_temperature;BME280_humidity;BME280_pressure;Samples;Min_cycle;Max_cycle;Signal;HPM_P1;HPM_P2
2021/09/21 00:02:01;;;;;;;6.13;5.53;;;;;;;;;;5073329;28;20454;-80
2021/09/21 00:04:28;;;;;;;7.37;5.70;;;;;;;;;;5072896;28;20456;-79
2021/09/21 00:06:55;;;;;;;6.20;5.60;;;;;;;;;;5071943;28;20443;-77
2021/09/21 00:09:22;;;;;;;7.83;6.07;;;;;;;;;;5068682;28;20456;-77
2021/09/21 00:11:51;;;;;;;6.90;6.30;;;;;;;;;;5069947;28;20531;-78
2021/09/21 00:14:20;;;;;;;5.77;5.20;;;;;;;;;;5070620;28;20441;-80
2021/09/21 00:16:47;;;;;;;5.40;4.90;;;;;;;;;;5070980;28;20456;-80
2021/09/21 00:19:14;;;;;;;5.63;5.13;;;;;;;;;;5071010;28;20487;-81
2021/09/21 00:21:41;;;;;;;5.67;5.17;;;;;;;;;;5072269;28;20468;-78
2021/09/21 00:24:08;;;;;;;6.07;5.47;;;;;;;;;;5073008;28;20440;-80
2021/09/21 00:26:35;;;;;;;6.43;5.60;;;;;;;;;;5073251;28;20439;-79
2021/09/21 00:29:03;;;;;;;6.03;5.43;;;;;;;;;;5072412;28;20437;-78
2021/09/21 00:31:37;;;;;;;6.10;5.50;;;;;;;;;;5068381;28;20442;-76
2021/09/21 00:34:08;;;;;;;5.13;4.73;;;;;;;;;;5069282;28;20458;-79
2021/09/21 00:36:36;;;;;;;5.60;5.00;;;;;;;;;;5071037;28;20450;-77
2021/09/21 00:39:05;;;;;;;5.80;5.30;;;;;;;;;;5069080;28;20446;-78
2021/09/21 00:41:32;;;;;;;5.80;5.30;;;;;;;;;;5073489;28;20445;-77
2021/09/21 00:43:59;;;;;;;5.37;4.87;;;;;;;;;;5075609;28;20454;-80
2021/09/21 00:46:26;;;;;;;4.87;4.47;;;;;;;;;;5076843;28;20447;-78
2021/09/21 00:48:55;;;;;;;4.93;4.53;;;;;;;;;;5080808;28;20448;-76
2021/09/21 00:51:24;;;;;;;6.87;5.43;;;;;;;;;;5076607;28;20546;-78
2021/09/21 00:53:51;;;;;;;5.90;5.03;;;;;;;;;;5071914;28;20441;-78
2021/09/21 00:56:18;;;;;;;5.30;4.80;;;;;;;;;;5073140;28;20436;-79
2021/09/21 00:58:45;;;;;;;5.73;4.77;;;;;;;;;;5074187;28;20473;-79
2021/09/21 01:01:12;;;;;;;5.07;4.67;;;;;;;;;;5074269;28;20895;-77
2021/09/21 01:03:40;;;;;;;5.57;5.07;;;;;;;;;;5074524;28;20441;-78
2021/09/21 01:06:09;;;;;;;4.93;4.50;;;;;;;;;;5075381;28;20465;-79
2021/09/21 01:08:36;;;;;;;4.47;4.07;;;;;;;;;;5076016;28;20484;-80
2021/09/21 01:11:03;;;;;;;5.73;5.23;;;;;;;;;;5076440;28;21020;-78
2021/09/21 01:13:30;;;;;;;5.60;4.60;;;;;;;;;;5076049;28;20454;-80
2021/09/21 01:15:57;;;;;;;4.93;4.43;;;;;;;;;;5071775;28;20441;-78
2021/09/21 01:18:24;;;;;;;4.67;4.27;;;;;;;;;;5072112;28;20432;-79
2021/09/21 01:20:52;;;;;;;5.50;4.17;;;;;;;;;;5074196;28;20477;-77
2021/09/21 01:23:20;;;;;;;5.30;4.80;;;;;;;;;;5073778;28;20445;-79
2021/09/21 01:25:47;;;;;;;5.00;4.50;;;;;;;;;;5074420;28;20453;-78
2021/09/21 01:28:15;;;;;;;4.70;4.30;;;;;;;;;;5074333;28;20459;-80
2021/09/21 01:30:42;;;;;;;4.63;4.13;;;;;;;;;;5076112;28;20495;-78
2021/09/21 01:33:09;;;;;;;5.20;4.70;;;;;;;;;;5075886;28;20445;-78
2021/09/21 01:35:36;;;;;;;5.47;4.97;;;;;;;;;;5076106;28;20446;-81
2021/09/21 01:38:03;;;;;;;4.77;4.37;;;;;;;;;;5071915;28;20907;-77
2021/09/21 01:40:32;;;;;;;4.97;4.57;;;;;;;;;;5071954;28;20482;-77
2021/09/21 01:42:59;;;;;;;4.30;3.90;;;;;;;;;;5073169;28;20458;-80
2021/09/21 01:45:26;;;;;;;4.50;4.10;;;;;;;;;;5073309;28;20447;-81
2021/09/21 01:47:55;;;;;;;5.00;4.50;;;;;;;;;;5074079;28;20799;-79
2021/09/21 01:50:32;;;;;;;4.87;4.40;;;;;;;;;;5073541;28;20480;-81
2021/09/21 01:53:04;;;;;;;4.40;4.00;;;;;;;;;;5074947;28;20918;-80
2021/09/21 01:58:19;;;;;;;4.93;4.43;;;;;;;;;;5076443;28;20431;-80
2021/09/21 02:00:47;;;;;;;5.00;4.60;;;;;;;;;;5069897;28;20915;-78
2021/09/21 02:03:14;;;;;;;6.37;4.83;;;;;;;;;;5071197;28;20443;-79
2021/09/21 02:05:41;;;;;;;5.27;4.73;;;;;;;;;;5073035;28;21010;-80
2021/09/21 02:08:08;;;;;;;5.10;4.60;;;;;;;;;;5073019;28;20826;-77
2021/09/21 02:10:37;;;;;;;4.70;4.30;;;;;;;;;;5073037;28;20789;-76
2021/09/21 02:13:04;;;;;;;5.47;4.97;;;;;;;;;;5073778;28;20442;-80
2021/09/21 02:15:31;;;;;;;4.73;4.20;;;;;;;;;;5074859;28;20461;-78
2021/09/21 02:18:00;;;;;;;5.00;4.57;;;;;;;;;;5075187;28;20509;-79
2021/09/21 02:20:27;;;;;;;4.33;3.90;;;;;;;;;;5074471;28;20474;-78
2021/09/21 02:22:54;;;;;;;4.40;4.00;;;;;;;;;;5071470;28;20455;-80
2021/09/21 02:25:22;;;;;;;4.60;4.20;;;;;;;;;;5070798;28;20542;-79
2021/09/21 02:27:51;;;;;;;5.80;3.90;;;;;;;;;;5072542;28;20465;-78
2021/09/21 02:30:18;;;;;;;4.80;4.40;;;;;;;;;;5072404;28;20470;-78
2021/09/21 02:32:46;;;;;;;5.10;4.60;;;;;;;;;;5073044;28;20845;-77
2021/09/21 02:35:13;;;;;;;4.37;3.97;;;;;;;;;;5072661;28;20960;-79
2021/09/21 02:37:40;;;;;;;5.20;4.70;;;;;;;;;;5073796;28;20457;-79
2021/09/21 02:40:09;;;;;;;4.80;4.30;;;;;;;;;;5074802;28;20478;-77
2021/09/21 02:42:36;;;;;;;5.33;4.83;;;;;;;;;;5075032;28;20483;-77
2021/09/21 02:45:05;;;;;;;4.23;3.93;;;;;;;;;;5071327;28;20453;-80
2021/09/21 02:47:33;;;;;;;5.33;4.83;;;;;;;;;;5069028;28;20433;-78
2021/09/21 02:50:00;;;;;;;4.40;4.00;;;;;;;;;;5071798;28;20465;-79
2021/09/21 02:52:27;;;;;;;5.30;4.37;;;;;;;;;;5072060;28;20454;-78
2021/09/21 02:54:54;;;;;;;6.27;4.60;;;;;;;;;;5072613;28;20451;-78
2021/09/21 02:57:21;;;;;;;4.60;4.20;;;;;;;;;;5072367;28;20445;-78
2021/09/21 02:59:48;;;;;;;4.50;4.10;;;;;;;;;;5074267;28;20465;-77
2021/09/21 03:02:17;;;;;;;4.80;4.37;;;;;;;;;;5074142;28;20466;-78
2021/09/21 03:04:51;;;;;;;6.70;4.53;;;;;;;;;;5074566;28;20531;-81
2021/09/21 03:07:27;;;;;;;5.63;4.80;;;;;;;;;;5070510;28;20478;-79
2021/09/21 03:10:05;;;;;;;5.00;4.43;;;;;;;;;;5070092;28;21422;-78
2021/09/21 03:12:54;;;;;;;4.67;4.23;;;;;;;;;;5071102;28;20445;-78
2021/09/21 03:18:03;;;;;;;8.50;5.17;;;;;;;;;;5073006;28;20560;-79
2021/09/21 03:20:32;;;;;;;4.93;4.43;;;;;;;;;;5072666;28;20985;-78
2021/09/21 03:23:00;;;;;;;5.00;4.60;;;;;;;;;;5073541;28;20448;-79
2021/09/21 03:25:27;;;;;;;5.00;4.60;;;;;;;;;;5074034;28;20447;-77
2021/09/21 03:27:54;;;;;;;5.60;5.03;;;;;;;;;;5073753;28;20793;-79
2021/09/21 03:30:21;;;;;;;5.50;5.00;;;;;;;;;;5069430;28;20819;-79
2021/09/21 03:32:49;;;;;;;5.17;4.57;;;;;;;;;;5069589;28;20442;-77
2021/09/21 03:35:17;;;;;;;5.43;4.63;;;;;;;;;;5071587;28;20932;-80
2021/09/21 03:37:44;;;;;;;4.80;3.90;;;;;;;;;;5070058;28;20450;-80
2021/09/21 03:40:12;;;;;;;5.00;4.20;;;;;;;;;;5071662;28;20967;-81
2021/09/21 03:42:39;;;;;;;4.50;4.10;;;;;;;;;;5066748;28;20472;-78
2021/09/21 03:45:07;;;;;;;4.30;3.90;;;;;;;;;;5068268;28;20452;-81
2021/09/21 03:47:34;;;;;;;4.97;4.27;;;;;;;;;;5069231;28;20475;-78
2021/09/21 03:50:01;;;;;;;5.00;4.50;;;;;;;;;;5068679;28;20458;-77
2021/09/21 03:52:30;;;;;;;4.20;3.80;;;;;;;;;;5071209;28;20444;-76
2021/09/21 03:54:57;;;;;;;5.00;4.53;;;;;;;;;;5071682;28;20440;-77
2021/09/21 03:57:24;;;;;;;4.23;3.83;;;;;;;;;;5073915;28;20461;-79
2021/09/21 03:59:51;;;;;;;5.10;4.13;;;;;;;;;;5072465;28;20475;-78
2021/09/21 04:02:22;;;;;;;4.80;4.37;;;;;;;;;;5073292;28;20475;-79
2021/09/21 04:05:11;;;;;;;5.37;4.87;;;;;;;;;;5073523;28;20445;-79
2021/09/21 04:07:39;;;;;;;5.10;4.43;;;;;;;;;;5068662;28;20469;-78
2021/09/21 04:10:07;;;;;;;5.67;4.97;;;;;;;;;;5069801;28;20467;-80
2021/09/21 04:12:35;;;;;;;5.83;5.30;;;;;;;;;;5071512;28;20958;-76
2021/09/21 04:15:02;;;;;;;4.40;4.00;;;;;;;;;;5070747;28;20439;-79
2021/09/21 04:17:30;;;;;;;4.73;4.33;;;;;;;;;;5072695;28;20988;-78
2021/09/21 04:19:57;;;;;;;4.33;3.97;;;;;;;;;;5072187;28;20489;-79
2021/09/21 04:22:24;;;;;;;5.90;4.60;;;;;;;;;;5073442;28;20477;-77
2021/09/21 04:24:52;;;;;;;4.63;4.13;;;;;;;;;;5072101;28;20440;-77
2021/09/21 04:27:19;;;;;;;5.60;4.57;;;;;;;;;;5072875;28;20441;-78
2021/09/21 04:29:49;;;;;;;6.73;4.60;;;;;;;;;;5069060;28;20814;-79
2021/09/21 04:32:19;;;;;;;5.43;4.53;;;;;;;;;;5068360;28;20520;-78
2021/09/21 04:34:47;;;;;;;5.60;4.73;;;;;;;;;;5071320;28;20440;-77
2021/09/21 04:37:14;;;;;;;5.73;4.50;;;;;;;;;;5069876;28;20446;-79
2021/09/21 04:39:41;;;;;;;4.00;3.70;;;;;;;;;;5071317;28;20465;-75
2021/09/21 04:42:10;;;;;;;5.23;4.80;;;;;;;;;;5071671;28;20498;-77
2021/09/21 04:44:38;;;;;;;4.80;4.30;;;;;;;;;;5073300;28;20437;-77
2021/09/21 04:47:05;;;;;;;5.00;4.50;;;;;;;;;;5073202;28;20444;-76
2021/09/21 04:49:34;;;;;;;5.43;4.77;;;;;;;;;;5072842;28;20460;-75
2021/09/21 04:52:01;;;;;;;5.90;4.33;;;;;;;;;;5073908;28;20433;-76
2021/09/21 04:54:28;;;;;;;4.73;4.30;;;;;;;;;;5069482;28;20541;-75
2021/09/21 04:56:55;;;;;;;5.23;4.10;;;;;;;;;;5071208;28;20799;-76
2021/09/21 04:59:26;;;;;;;5.17;3.97;;;;;;;;;;5070730;28;20966;-76
2021/09/21 05:01:53;;;;;;;4.17;3.70;;;;;;;;;;5071170;28;20494;-74
2021/09/21 05:04:20;;;;;;;6.13;4.23;;;;;;;;;;5071651;28;20462;-76
2021/09/21 05:06:47;;;;;;;5.50;4.13;;;;;;;;;;5072672;28;20935;-76
2021/09/21 05:09:15;;;;;;;5.27;4.00;;;;;;;;;;5072772;28;20881;-76
2021/09/21 05:11:44;;;;;;;5.77;4.23;;;;;;;;;;5072750;28;20801;-77
2021/09/21 05:14:11;;;;;;;5.20;4.30;;;;;;;;;;5068625;28;20476;-78
2021/09/21 05:16:40;;;;;;;4.70;4.30;;;;;;;;;;5069118;28;20450;-77
2021/09/21 05:19:08;;;;;;;4.30;3.90;;;;;;;;;;5069562;28;20965;-77
2021/09/21 05:21:36;;;;;;;4.30;3.90;;;;;;;;;;5070377;28;20487;-76
2021/09/21 05:24:04;;;;;;;4.37;3.70;;;;;;;;;;5069842;28;20449;-77
2021/09/21 05:26:31;;;;;;;4.30;3.90;;;;;;;;;;5071525;28;20448;-77
2021/09/21 05:28:58;;;;;;;4.47;4.07;;;;;;;;;;5075550;28;20448;-76
2021/09/21 05:31:25;;;;;;;5.00;3.97;;;;;;;;;;5076458;28;20449;-74
2021/09/21 05:33:54;;;;;;;4.57;4.17;;;;;;;;;;5075968;28;20806;-75
2021/09/21 05:36:21;;;;;;;3.97;3.60;;;;;;;;;;5071665;28;20429;-76
2021/09/21 05:38:48;;;;;;;3.90;3.50;;;;;;;;;;5072495;28;20442;-77
2021/09/21 05:41:15;;;;;;;5.10;4.03;;;;;;;;;;5074142;28;20475;-77
2021/09/21 05:43:42;;;;;;;3.47;3.17;;;;;;;;;;5073980;28;20444;-77
2021/09/21 05:46:09;;;;;;;3.90;3.50;;;;;;;;;;5074108;28;20448;-77
2021/09/21 05:48:36;;;;;;;4.57;3.80;;;;;;;;;;5073685;28;20828;-76
2021/09/21 05:51:05;;;;;;;5.80;4.30;;;;;;;;;;5071450;28;20452;-77
2021/09/21 05:53:32;;;;;;;4.77;4.00;;;;;;;;;;5072636;28;20440;-77
2021/09/21 05:55:59;;;;;;;4.47;3.57;;;;;;;;;;5073920;28;20451;-77
2021/09/21 05:58:26;;;;;;;4.33;3.50;;;;;;;;;;5073709;28;20451;-77
2021/09/21 06:00:53;;;;;;;4.33;3.83;;;;;;;;;;5073847;28;20487;-78
2021/09/21 06:03:20;;;;;;;4.13;3.70;;;;;;;;;;5072033;28;20472;-78
2021/09/21 06:05:48;;;;;;;3.93;3.57;;;;;;;;;;5075715;28;20455;-78
2021/09/21 06:08:17;;;;;;;4.87;3.50;;;;;;;;;;5075576;28;20472;-78
2021/09/21 06:10:44;;;;;;;5.13;3.30;;;;;;;;;;5074896;28;20966;-81
2021/09/21 06:13:11;;;;;;;3.80;3.50;;;;;;;;;;5071192;28;21367;-78
2021/09/21 06:15:38;;;;;;;4.40;3.90;;;;;;;;;;5072068;28;20455;-80
2021/09/21 06:18:05;;;;;;;5.63;3.90;;;;;;;;;;5073602;28;20451;-79
2021/09/21 06:20:33;;;;;;;5.50;3.90;;;;;;;;;;5078770;28;20454;-78
2021/09/21 06:23:00;;;;;;;3.93;3.50;;;;;;;;;;5077776;28;20482;-75
2021/09/21 06:25:28;;;;;;;4.27;3.67;;;;;;;;;;5074173;28;20945;-79
2021/09/21 06:27:55;;;;;;;4.00;3.50;;;;;;;;;;5075148;28;20448;-79
2021/09/21 06:30:23;;;;;;;4.37;3.97;;;;;;;;;;5074687;28;20832;-75
2021/09/21 06:32:50;;;;;;;5.80;4.67;;;;;;;;;;5074928;28;20797;-78
2021/09/21 06:35:17;;;;;;;4.90;4.40;;;;;;;;;;5069286;28;20437;-79
2021/09/21 06:37:45;;;;;;;4.10;3.40;;;;;;;;;;5070988;28;20440;-77
2021/09/21 06:40:13;;;;;;;5.43;3.87;;;;;;;;;;5072602;28;20495;-79
2021/09/21 06:42:42;;;;;;;5.73;3.87;;;;;;;;;;5071742;28;20476;-77
2021/09/21 06:45:10;;;;;;;4.67;3.93;;;;;;;;;;5069006;28;20452;-78
2021/09/21 06:47:38;;;;;;;4.10;3.70;;;;;;;;;;5073547;28;20464;-79
2021/09/21 06:50:05;;;;;;;4.63;3.60;;;;;;;;;;5073197;28;20467;-79
2021/09/21 06:52:33;;;;;;;4.13;3.03;;;;;;;;;;5073773;28;20475;-77
2021/09/21 06:55:00;;;;;;;3.20;2.80;;;;;;;;;;5074152;28;20957;-76
2021/09/21 06:57:27;;;;;;;4.00;3.50;;;;;;;;;;5067921;28;20941;-77
2021/09/21 06:59:57;;;;;;;4.63;2.97;;;;;;;;;;5070289;28;20456;-78
2021/09/21 07:02:24;;;;;;;3.77;3.47;;;;;;;;;;5072696;28;20548;-77
2021/09/21 07:04:51;;;;;;;3.17;2.87;;;;;;;;;;5071015;28;20464;-77
2021/09/21 07:07:18;;;;;;;5.93;3.77;;;;;;;;;;5087015;28;20477;-77
2021/09/21 07:09:46;;;;;;;4.27;3.70;;;;;;;;;;5077994;28;20473;-77
2021/09/21 07:12:13;;;;;;;3.43;3.13;;;;;;;;;;5074294;28;20421;-76
2021/09/21 07:14:40;;;;;;;3.50;3.10;;;;;;;;;;5074378;28;20402;-78
2021/09/21 07:17:08;;;;;;;3.93;3.30;;;;;;;;;;5073027;28;20448;-77
2021/09/21 07:19:35;;;;;;;3.77;3.37;;;;;;;;;;5067249;28;20447;-76
2021/09/21 07:22:03;;;;;;;3.70;3.40;;;;;;;;;;5069071;28;20478;-76
2021/09/21 07:24:30;;;;;;;3.43;2.90;;;;;;;;;;5070860;28;20521;-79
2021/09/21 07:26:57;;;;;;;4.30;2.80;;;;;;;;;;5069454;28;20447;-76
2021/09/21 07:29:25;;;;;;;3.20;2.83;;;;;;;;;;5071423;28;20747;-77
2021/09/21 07:31:52;;;;;;;3.87;3.47;;;;;;;;;;5071408;28;20935;-76
2021/09/21 07:34:21;;;;;;;3.13;2.83;;;;;;;;;;5073914;28;20446;-77
2021/09/21 07:36:51;;;;;;;4.50;3.60;;;;;;;;;;5052671;28;20469;-79
2021/09/21 07:39:19;;;;;;;4.77;3.73;;;;;;;;;;5071266;28;20450;-77
2021/09/21 07:41:46;;;;;;;3.20;2.90;;;;;;;;;;5070759;28;20453;-76
2021/09/21 07:44:13;;;;;;;3.33;3.00;;;;;;;;;;5069279;28;20450;-77
2021/09/21 07:46:40;;;;;;;4.23;3.20;;;;;;;;;;5070933;28;20422;-79
2021/09/21 07:49:08;;;;;;;3.83;3.33;;;;;;;;;;5071945;28;20439;-75
2021/09/21 07:51:36;;;;;;;3.40;3.07;;;;;;;;;;5070647;28;20455;-77
2021/09/21 07:54:03;;;;;;;4.30;3.10;;;;;;;;;;5062668;28;20450;-77
2021/09/21 07:56:31;;;;;;;4.00;3.03;;;;;;;;;;5053726;28;20476;-77
2021/09/21 07:58:58;;;;;;;3.10;2.80;;;;;;;;;;5069766;28;20470;-77
2021/09/21 08:01:25;;;;;;;4.63;3.13;;;;;;;;;;5073511;28;20912;-74
2021/09/21 08:03:54;;;;;;;4.70;3.30;;;;;;;;;;5070348;28;20470;-77
2021/09/21 08:06:22;;;;;;;4.97;4.40;;;;;;;;;;5068776;28;20878;-75
2021/09/21 08:08:50;;;;;;;4.20;3.67;;;;;;;;;;5069108;28;20549;-77
2021/09/21 08:11:18;;;;;;;4.03;2.87;;;;;;;;;;5070866;28;20865;-76
2021/09/21 08:13:46;;;;;;;3.80;3.10;;;;;;;;;;5070114;28;20449;-74
2021/09/21 08:16:13;;;;;;;6.10;3.40;;;;;;;;;;5066722;28;20826;-74
2021/09/21 08:18:40;;;;;;;3.93;3.10;;;;;;;;;;5065068;28;20460;-73
2021/09/21 08:21:07;;;;;;;5.23;3.57;;;;;;;;;;5069517;28;20455;-76
2021/09/21 08:23:34;;;;;;;3.27;2.90;;;;;;;;;;5069244;28;20506;-77
2021/09/21 08:26:03;;;;;;;3.17;2.87;;;;;;;;;;5070960;28;20432;-72
2021/09/21 08:28:30;;;;;;;3.27;2.90;;;;;;;;;;5071166;28;20445;-76
2021/09/21 08:30:57;;;;;;;2.43;2.23;;;;;;;;;;5071730;28;20480;-76
2021/09/21 08:33:25;;;;;;;4.50;2.80;;;;;;;;;;5072963;28;21000;-76
2021/09/21 08:35:52;;;;;;;3.70;2.80;;;;;;;;;;5073248;28;20422;-76
2021/09/21 08:38:19;;;;;;;3.43;3.10;;;;;;;;;;5076236;28;20422;-76
2021/09/21 08:40:46;;;;;;;4.30;2.97;;;;;;;;;;5075201;28;20438;-75
2021/09/21 08:43:15;;;;;;;4.40;3.10;;;;;;;;;;5068899;28;20843;-75
2021/09/21 08:45:42;;;;;;;3.83;3.30;;;;;;;;;;5070203;28;20445;-74
2021/09/21 08:48:09;;;;;;;5.40;3.37;;;;;;;;;;5070599;28;20466;-75
2021/09/21 08:50:36;;;;;;;3.50;2.87;;;;;;;;;;5070667;28;20445;-76
2021/09/21 08:53:04;;;;;;;3.20;2.90;;;;;;;;;;5068759;28;20465;-75
2021/09/21 08:55:31;;;;;;;4.00;3.30;;;;;;;;;;5071273;28;20441;-76
2021/09/21 08:57:58;;;;;;;4.20;3.73;;;;;;;;;;5072951;28;20419;-76
2021/09/21 09:00:29;;;;;;;3.50;3.03;;;;;;;;;;5071930;28;20866;-78
2021/09/21 09:03:04;;;;;;;4.00;3.10;;;;;;;;;;5074425;28;20526;-75
2021/09/21 09:05:42;;;;;;;6.47;3.37;;;;;;;;;;5071169;28;20461;-76
2021/09/21 09:08:09;;;;;;;4.73;3.00;;;;;;;;;;5073694;28;20475;-74
2021/09/21 09:10:36;;;;;;;5.37;2.80;;;;;;;;;;5074337;28;20442;-77
2021/09/21 09:13:03;;;;;;;3.03;2.70;;;;;;;;;;5072155;28;20828;-77
2021/09/21 09:15:32;;;;;;;3.33;3.00;;;;;;;;;;5074073;28;20609;-78
2021/09/21 09:18:00;;;;;;;2.93;2.70;;;;;;;;;;5076527;28;20439;-76
2021/09/21 09:20:32;;;;;;;4.37;3.00;;;;;;;;;;5076172;28;21018;-76
2021/09/21 09:22:59;;;;;;;3.77;2.70;;;;;;;;;;5076968;28;20446;-75
2021/09/21 09:25:26;;;;;;;3.63;2.63;;;;;;;;;;5078201;28;20429;-77
2021/09/21 09:27:54;;;;;;;3.43;2.50;;;;;;;;;;5072384;28;20466;-76
2021/09/21 09:30:22;;;;;;;3.10;2.47;;;;;;;;;;5071341;28;20457;-77
2021/09/21 09:32:52;;;;;;;3.63;2.40;;;;;;;;;;5070961;28;20499;-75
2021/09/21 09:35:23;;;;;;;2.80;2.30;;;;;;;;;;5073917;28;20434;-75
2021/09/21 09:37:51;;;;;;;3.57;2.83;;;;;;;;;;5073922;28;20457;-75
2021/09/21 09:40:18;;;;;;;3.30;2.87;;;;;;;;;;5072828;28;20491;-76
2021/09/21 09:42:46;;;;;;;3.20;2.50;;;;;;;;;;5072061;28;20460;-78
2021/09/21 09:45:13;;;;;;;3.23;2.43;;;;;;;;;;5071995;28;20430;-81
2021/09/21 09:47:48;;;;;;;4.07;2.30;;;;;;;;;;5073805;28;20447;-75
2021/09/21 09:50:18;;;;;;;4.30;3.00;;;;;;;;;;5073898;28;20892;-76
2021/09/21 09:52:45;;;;;;;4.03;2.70;;;;;;;;;;5064079;28;20506;-77
2021/09/21 09:55:12;;;;;;;6.10;2.37;;;;;;;;;;5055969;28;20430;-76
2021/09/21 09:57:41;;;;;;;2.33;2.13;;;;;;;;;;5055705;28;20417;-76
2021/09/21 10:00:09;;;;;;;3.33;2.90;;;;;;;;;;5054643;28;21042;-76
2021/09/21 10:02:37;;;;;;;3.30;2.80;;;;;;;;;;5067802;28;20458;-74
2021/09/21 10:05:04;;;;;;;3.30;2.30;;;;;;;;;;5070413;28;20443;-75
2021/09/21 10:07:33;;;;;;;3.03;2.63;;;;;;;;;;5072655;28;20464;-73
2021/09/21 10:10:00;;;;;;;4.93;2.60;;;;;;;;;;5073466;28;20473;-74
2021/09/21 10:12:28;;;;;;;3.93;2.67;;;;;;;;;;5073471;28;20426;-75
2021/09/21 10:14:55;;;;;;;2.97;2.77;;;;;;;;;;5073560;28;20437;-76
2021/09/21 10:17:25;;;;;;;3.07;2.77;;;;;;;;;;5075236;28;20512;-76
2021/09/21 10:19:55;;;;;;;5.30;3.50;;;;;;;;;;5075471;28;20460;-76
2021/09/21 10:22:26;;;;;;;5.10;2.73;;;;;;;;;;5073031;28;20481;-75
2021/09/21 10:24:54;;;;;;;3.20;2.87;;;;;;;;;;5069599;28;20993;-74
2021/09/21 10:27:22;;;;;;;2.70;2.50;;;;;;;;;;5071153;28;20933;-76
2021/09/21 10:29:58;;;;;;;2.90;2.60;;;;;;;;;;5071282;28;20812;-75
2021/09/21 10:32:25;;;;;;;2.70;2.50;;;;;;;;;;5073038;28;20422;-76
2021/09/21 10:34:52;;;;;;;3.50;2.80;;;;;;;;;;5079401;28;20417;-75
2021/09/21 10:37:23;;;;;;;3.27;2.37;;;;;;;;;;5071151;28;20783;-76
2021/09/21 10:40:01;;;;;;;3.10;2.80;;;;;;;;;;5074935;28;20815;-74
2021/09/21 10:42:31;;;;;;;3.17;2.87;;;;;;;;;;5074500;28;20460;-76
2021/09/21 10:45:01;;;;;;;3.67;2.80;;;;;;;;;;5075040;28;20422;-76
2021/09/21 10:47:29;;;;;;;5.07;3.33;;;;;;;;;;5069770;28;20522;-74
2021/09/21 10:50:09;;;;;;;3.47;2.70;;;;;;;;;;5070361;28;20492;-75
2021/09/21 10:52:36;;;;;;;4.63;3.17;;;;;;;;;;5072460;28;20448;-75
2021/09/21 10:55:07;;;;;;;2.83;2.57;;;;;;;;;;5071523;28;20449;-76
2021/09/21 10:57:35;;;;;;;3.90;2.33;;;;;;;;;;5072993;28;20455;-76
2021/09/21 11:00:05;;;;;;;3.90;3.13;;;;;;;;;;5059991;28;20484;-75
2021/09/21 11:02:35;;;;;;;2.43;2.23;;;;;;;;;;5068148;28;20456;-75
2021/09/21 11:05:02;;;;;;;3.30;2.83;;;;;;;;;;5073566;28;20421;-74
2021/09/21 11:07:31;;;;;;;3.07;2.47;;;;;;;;;;5073606;28;20451;-76
2021/09/21 11:09:58;;;;;;;2.70;2.33;;;;;;;;;;5070551;28;20431;-78
2021/09/21 11:12:27;;;;;;;2.63;2.43;;;;;;;;;;5070064;28;20413;-77
2021/09/21 11:14:55;;;;;;;3.13;2.73;;;;;;;;;;5072258;28;20424;-77
2021/09/21 11:17:24;;;;;;;4.17;2.87;;;;;;;;;;5070850;28;20414;-78
2021/09/21 11:19:53;;;;;;;3.30;3.00;;;;;;;;;;5072201;28;20464;-77
2021/09/21 11:22:22;;;;;;;3.00;2.73;;;;;;;;;;5061713;28;21608;-76
2021/09/21 11:24:50;;;;;;;2.70;2.50;;;;;;;;;;5052406;28;20454;-74
2021/09/21 11:27:17;;;;;;;3.20;2.30;;;;;;;;;;5070498;28;20441;-76
2021/09/21 11:29:46;;;;;;;2.90;2.50;;;;;;;;;;5069754;28;20470;-76
2021/09/21 11:32:18;;;;;;;2.77;2.57;;;;;;;;;;5071070;28;20444;-75
2021/09/21 11:34:46;;;;;;;4.90;2.77;;;;;;;;;;5088907;28;20926;-75
2021/09/21 11:37:14;;;;;;;3.30;2.43;;;;;;;;;;5089476;28;20439;-75
2021/09/21 11:39:41;;;;;;;4.10;2.70;;;;;;;;;;5069405;28;20459;-75
2021/09/21 11:42:08;;;;;;;3.13;2.83;;;;;;;;;;5073808;28;20452;-76
2021/09/21 11:44:38;;;;;;;3.70;2.60;;;;;;;;;;5073572;28;20484;-76
2021/09/21 11:47:07;;;;;;;2.67;2.40;;;;;;;;;;5073689;28;20444;-75
2021/09/21 11:49:34;;;;;;;3.40;2.63;;;;;;;;;;5069323;28;20460;-75
2021/09/21 11:52:05;;;;;;;3.70;2.60;;;;;;;;;;5069380;28;20440;-76
2021/09/21 11:54:33;;;;;;;3.13;2.40;;;;;;;;;;5068326;28;20455;-78
2021/09/21 11:57:00;;;;;;;5.47;3.10;;;;;;;;;;5067123;28;20464;-77
2021/09/21 11:59:27;;;;;;;3.20;2.90;;;;;;;;;;5070565;28;20479;-76
2021/09/21 12:01:57;;;;;;;2.83;2.50;;;;;;;;;;5071904;28;20938;-74
2021/09/21 12:04:25;;;;;;;3.20;2.90;;;;;;;;;;5072358;28;20838;-76
2021/09/21 12:06:53;;;;;;;2.60;2.40;;;;;;;;;;5073335;28;20423;-80
2021/09/21 12:09:20;;;;;;;2.97;2.67;;;;;;;;;;5073435;28;20460;-77
2021/09/21 12:11:47;;;;;;;6.93;2.77;;;;;;;;;;5070551;28;20472;-76
2021/09/21 12:14:17;;;;;;;2.77;2.57;;;;;;;;;;5069069;28;20449;-75
2021/09/21 12:16:50;;;;;;;4.07;2.30;;;;;;;;;;5069291;28;20403;-78
2021/09/21 12:19:17;;;;;;;2.60;2.20;;;;;;;;;;5069456;28;20471;-76
2021/09/21 12:21:47;;;;;;;3.37;2.50;;;;;;;;;;5071818;28;20440;-77
2021/09/21 12:24:14;;;;;;;5.00;2.80;;;;;;;;;;5061947;28;20531;-76
2021/09/21 12:26:42;;;;;;;4.40;2.97;;;;;;;;;;5062525;28;20533;-75
2021/09/21 12:29:09;;;;;;;4.80;3.20;;;;;;;;;;5072623;28;20480;-74
2021/09/21 12:31:37;;;;;;;3.53;2.87;;;;;;;;;;5072202;28;20450;-77
2021/09/21 12:34:09;;;;;;;2.67;2.47;;;;;;;;;;5070525;28;20476;-77
2021/09/21 12:36:42;;;;;;;3.80;2.50;;;;;;;;;;5070034;28;21235;-76
2021/09/21 12:39:12;;;;;;;2.53;2.33;;;;;;;;;;5072320;28;20829;-74
2021/09/21 12:41:41;;;;;;;3.33;2.47;;;;;;;;;;5075230;28;20440;-76
2021/09/21 12:44:10;;;;;;;2.63;2.23;;;;;;;;;;5075410;28;20483;-77
2021/09/21 12:46:37;;;;;;;2.53;2.33;;;;;;;;;;5066485;28;20816;-73
2021/09/21 12:49:05;;;;;;;3.40;2.80;;;;;;;;;;5071643;28;20444;-77
2021/09/21 12:51:32;;;;;;;2.40;2.20;;;;;;;;;;5076503;28;20451;-75
2021/09/21 12:54:00;;;;;;;3.50;2.50;;;;;;;;;;5075846;28;20452;-76
2021/09/21 12:56:31;;;;;;;3.10;2.40;;;;;;;;;;5074181;28;20432;-75
2021/09/21 12:59:04;;;;;;;3.37;2.40;;;;;;;;;;5088365;28;20828;-76
2021/09/21 13:01:31;;;;;;;2.67;2.47;;;;;;;;;;5073372;28;20452;-75
2021/09/21 13:03:58;;;;;;;3.00;2.43;;;;;;;;;;5074347;28;20806;-74
2021/09/21 13:06:25;;;;;;;4.07;2.77;;;;;;;;;;5074667;28;20626;-76
2021/09/21 13:08:53;;;;;;;2.63;2.27;;;;;;;;;;5075029;28;20483;-77
2021/09/21 13:11:20;;;;;;;3.60;2.77;;;;;;;;;;5076786;28;20811;-76
2021/09/21 13:13:48;;;;;;;2.80;2.50;;;;;;;;;;5070992;28;21051;-73
2021/09/21 13:16:15;;;;;;;4.53;2.63;;;;;;;;;;5070916;28;20455;-76
2021/09/21 13:18:43;;;;;;;3.87;3.00;;;;;;;;;;5071612;28;20986;-76
2021/09/21 13:21:10;;;;;;;2.80;2.30;;;;;;;;;;5074456;28;20796;-73
2021/09/21 13:23:38;;;;;;;3.07;2.80;;;;;;;;;;5070071;28;20482;-76
2021/09/21 13:26:05;;;;;;;6.23;2.50;;;;;;;;;;5073625;28;20423;-77
2021/09/21 13:28:32;;;;;;;2.50;2.30;;;;;;;;;;5087262;28;20767;-75
2021/09/21 13:31:01;;;;;;;2.90;2.60;;;;;;;;;;5075948;28;20816;-77
2021/09/21 13:33:28;;;;;;;3.00;2.70;;;;;;;;;;5075289;28;20780;-76
2021/09/21 13:35:55;;;;;;;2.87;2.57;;;;;;;;;;5075421;28;20445;-75
2021/09/21 13:38:22;;;;;;;2.97;2.47;;;;;;;;;;5071096;28;20994;-75
2021/09/21 13:40:50;;;;;;;3.40;2.83;;;;;;;;;;5071682;28;20971;-75
2021/09/21 13:43:17;;;;;;;4.57;3.23;;;;;;;;;;5073648;28;20430;-75
2021/09/21 13:45:45;;;;;;;2.70;2.50;;;;;;;;;;5073736;28;20892;-74
2021/09/21 13:48:13;;;;;;;2.90;2.70;;;;;;;;;;5073389;28;20447;-76
2021/09/21 13:50:41;;;;;;;3.03;2.43;;;;;;;;;;5074965;28;21001;-76
2021/09/21 13:53:08;;;;;;;3.13;2.50;;;;;;;;;;5075486;28;20847;-74
2021/09/21 13:55:36;;;;;;;2.67;2.47;;;;;;;;;;5075869;28;20534;-74
2021/09/21 13:58:03;;;;;;;2.50;2.30;;;;;;;;;;5075351;28;20771;-77
2021/09/21 14:00:30;;;;;;;3.60;2.90;;;;;;;;;;5070359;28;20451;-76
2021/09/21 14:02:57;;;;;;;4.10;2.30;;;;;;;;;;5071493;28;20456;-76
2021/09/21 14:05:29;;;;;;;2.67;2.47;;;;;;;;;;5073180;28;20454;-76
2021/09/21 14:07:57;;;;;;;2.43;2.03;;;;;;;;;;5073492;28;20483;-78
2021/09/21 14:10:24;;;;;;;2.70;2.50;;;;;;;;;;5072473;28;20533;-77
2021/09/21 14:12:51;;;;;;;2.53;2.33;;;;;;;;;;5058897;28;20457;-75
2021/09/21 14:15:19;;;;;;;3.13;2.50;;;;;;;;;;5056460;28;20445;-75
2021/09/21 14:17:48;;;;;;;2.50;2.30;;;;;;;;;;5074608;28;20471;-75
2021/09/21 14:20:16;;;;;;;4.93;2.40;;;;;;;;;;5074307;28;20486;-74
2021/09/21 14:22:45;;;;;;;3.20;2.57;;;;;;;;;;5069271;28;20457;-74
2021/09/21 14:25:12;;;;;;;3.57;2.80;;;;;;;;;;5070329;28;20454;-77
2021/09/21 14:27:39;;;;;;;3.40;2.57;;;;;;;;;;5072771;28;20432;-76
2021/09/21 14:30:08;;;;;;;3.40;2.47;;;;;;;;;;5073136;28;20456;-75
2021/09/21 14:32:36;;;;;;;4.90;2.57;;;;;;;;;;5073499;28;20472;-76
2021/09/21 14:35:04;;;;;;;2.67;2.47;;;;;;;;;;5073697;28;20551;-75
2021/09/21 14:37:31;;;;;;;2.77;2.53;;;;;;;;;;5075063;28;20450;-77
2021/09/21 14:40:00;;;;;;;2.37;2.17;;;;;;;;;;5074830;28;20558;-76
2021/09/21 14:42:27;;;;;;;3.60;2.70;;;;;;;;;;5074383;28;20430;-76
2021/09/21 14:44:54;;;;;;;2.60;2.27;;;;;;;;;;5069099;28;20482;-74
2021/09/21 14:47:21;;;;;;;2.30;2.03;;;;;;;;;;5070961;28;20443;-75
2021/09/21 14:49:48;;;;;;;2.10;1.90;;;;;;;;;;5072397;28;20671;-75
2021/09/21 14:52:16;;;;;;;3.03;2.20;;;;;;;;;;5072778;28;20444;-76
2021/09/21 14:54:43;;;;;;;3.07;2.00;;;;;;;;;;5071772;28;20827;-73